Skip Navigation Links Skip Navigation Links

Current Weather

San Carlos, Calif.

For information only: do not use for flight planning or navigation.
Latest weather
Observation time Tuesday, October 19, 2021 1:15 AM PDT
Local time Tuesday, October 19, 2021 1:26 AM PDT
Flight conditions Visual Meteorological Conditions
Winds
Wind speed calm
Visibility 10 mi.
Sky condition
Ceiling unlimited
Sky clear
Temperature 48°F
Dewpoint 45°F
Altimeter 30.05 in.Hg
Derived measurements
Relative humidity 87%
Wind chill 48°F
Density altitude -718 ft.
Remarks
Fully automated report.
Automated weather observing station with precipitation discriminator.
METAR KSQL 190815Z AUTO 00000KT 10SM CLR 09/07 A3005 RMK AO2

Settings

Location code

InnerDrive.Weather 4.0.6770.0 Release CLR 4.0.30319.42000
Copyright ©2018 Inner Drive Technology. All rights reserved. Portions Copyright ©1986-2018 David Braverman.

Find weather

Site navigation


Skip Navigation Links

Place info

Page info

PayPal - The safer, easier way to pay online!

Return home.

Copyright ©2021 Inner Drive Technology. Purveyors of fine, hand-crafted computer software. Page printed 2021-10-19T08:26:19 UTC.